createdAt,value
2024-01-08T00:02:16.119Z,101029.98
2024-01-08T00:04:44.175Z,101035.11
2024-01-08T00:07:12.029Z,101036.84
2024-01-08T00:09:39.841Z,101033.45
2024-01-08T00:12:07.958Z,101034.00
2024-01-08T00:14:35.876Z,101037.83
2024-01-08T00:17:04.118Z,101038.73
2024-01-08T00:19:33.038Z,101040.00
2024-01-08T00:22:00.938Z,101042.37
2024-01-08T00:24:29.233Z,101043.70
2024-01-08T00:26:57.096Z,101048.02
2024-01-08T00:29:25.024Z,101048.10
2024-01-08T00:31:53.018Z,101055.31
2024-01-08T00:34:21.886Z,101052.41
2024-01-08T00:36:50.210Z,101053.29
2024-01-08T00:39:18.043Z,101052.65
2024-01-08T00:41:46.005Z,101055.63
2024-01-08T00:44:13.900Z,101058.04
2024-01-08T00:46:41.886Z,101062.94
2024-01-08T00:49:09.862Z,101061.87
2024-01-08T00:51:37.739Z,101061.92
2024-01-08T00:54:05.737Z,101061.33
2024-01-08T00:56:33.637Z,101067.65
2024-01-08T00:59:01.604Z,101069.64
2024-01-08T01:01:29.589Z,101073.50
2024-01-08T01:03:57.628Z,101081.26
2024-01-08T01:06:25.688Z,101077.05
2024-01-08T01:08:53.783Z,101085.85
2024-01-08T01:11:21.662Z,101081.16
2024-01-08T01:13:49.658Z,101082.67
2024-01-08T01:16:17.818Z,101082.98
2024-01-08T01:18:46.243Z,101083.98
2024-01-08T01:21:22.198Z,101088.83
2024-01-08T01:23:51.609Z,101087.22
2024-01-08T01:26:21.685Z,101090.90
2024-01-08T01:28:50.690Z,101092.67
2024-01-08T01:31:18.598Z,101092.49
2024-01-08T01:33:46.595Z,101097.90
2024-01-08T01:36:14.556Z,101094.92
2024-01-08T01:38:42.355Z,101094.23
2024-01-08T01:41:10.199Z,101093.90
2024-01-08T01:43:38.055Z,101093.61
2024-01-08T01:46:09.328Z,101091.48
2024-01-08T01:48:37.255Z,101095.04
2024-01-08T01:51:05.455Z,101094.82
2024-01-08T01:53:33.707Z,101098.16
2024-01-08T01:56:02.160Z,101098.11
2024-01-08T01:58:31.016Z,101099.14
2024-01-08T02:00:59.128Z,101099.10
2024-01-08T02:03:27.796Z,101099.77
2024-01-08T02:05:56.231Z,101104.30
2024-01-08T02:08:24.588Z,101109.21
2024-01-08T02:10:53.096Z,101109.45
2024-01-08T02:13:20.949Z,101112.73
2024-01-08T02:15:48.888Z,101114.13
2024-01-08T02:18:17.001Z,101118.70
2024-01-08T02:20:44.979Z,101120.23
2024-01-08T02:23:12.981Z,101126.20
2024-01-08T02:25:41.362Z,101123.44
2024-01-08T02:28:09.362Z,101123.80
2024-01-08T02:30:37.198Z,101124.27
2024-01-08T02:33:05.350Z,101131.58
2024-01-08T02:35:33.570Z,101131.64
2024-01-08T02:38:01.536Z,101127.66
2024-01-08T02:40:29.539Z,101129.68
2024-01-08T02:42:57.613Z,101128.58
2024-01-08T02:45:25.502Z,101126.36
2024-01-08T02:47:53.559Z,101125.70
2024-01-08T02:50:21.563Z,101128.90
2024-01-08T02:52:49.494Z,101130.41
2024-01-08T02:55:17.456Z,101135.30
2024-01-08T02:57:45.378Z,101141.77
2024-01-08T03:00:13.757Z,101146.17
2024-01-08T03:02:41.884Z,101144.41
2024-01-08T03:05:10.277Z,101149.20
2024-01-08T03:07:38.298Z,101150.68
2024-01-08T03:10:06.588Z,101154.06
2024-01-08T03:12:34.604Z,101158.28
2024-01-08T03:15:02.391Z,101162.91
2024-01-08T03:17:30.483Z,101159.38
2024-01-08T03:19:58.693Z,101165.43
2024-01-08T03:22:26.627Z,101165.17
2024-01-08T03:24:54.498Z,101165.67
2024-01-08T03:27:22.325Z,101171.80
2024-01-08T03:29:50.206Z,101178.23
2024-01-08T03:32:18.107Z,101175.21
2024-01-08T03:34:47.522Z,101185.59
2024-01-08T03:37:15.512Z,101190.27
2024-01-08T03:39:43.350Z,101189.91
2024-01-08T03:42:11.242Z,101196.52
2024-01-08T03:44:39.325Z,101199.14
2024-01-08T03:47:07.223Z,101199.20
2024-01-08T03:49:35.136Z,101204.20
2024-01-08T03:52:02.986Z,101206.38
2024-01-08T03:54:30.846Z,101203.14
2024-01-08T03:56:58.623Z,101207.23
2024-01-08T03:59:26.409Z,101207.79
2024-01-08T04:01:55.231Z,101207.73
2024-01-08T04:04:23.070Z,101213.73
2024-01-08T04:06:50.900Z,101216.80
2024-01-08T04:09:19.151Z,101223.10
2024-01-08T04:11:47.245Z,101228.28
2024-01-08T04:14:15.387Z,101233.38
2024-01-08T04:16:43.454Z,101233.73
2024-01-08T04:19:11.365Z,101235.58
2024-01-08T04:21:39.542Z,101235.46
2024-01-08T04:24:07.451Z,101240.02
2024-01-08T04:26:35.346Z,101244.34
2024-01-08T04:29:03.540Z,101245.64
2024-01-08T04:31:32.538Z,101247.21
2024-01-08T04:34:00.853Z,101255.21
2024-01-08T04:36:28.879Z,101261.84
2024-01-08T04:38:56.714Z,101262.06
2024-01-08T04:41:24.774Z,101268.36
2024-01-08T04:43:52.738Z,101266.73
2024-01-08T04:46:20.624Z,101267.95
2024-01-08T04:48:48.556Z,101273.45
2024-01-08T04:51:24.283Z,101276.04
2024-01-08T04:53:53.364Z,101274.60
2024-01-08T04:56:25.746Z,101278.61
2024-01-08T04:58:54.544Z,101281.16
2024-01-08T05:01:23.381Z,101287.45
2024-01-08T05:03:53.161Z,101294.42
2024-01-08T05:06:21.202Z,101295.29
2024-01-08T05:08:49.628Z,101294.27
2024-01-08T05:11:17.605Z,101293.75
2024-01-08T05:13:45.640Z,101299.20
2024-01-08T05:16:13.612Z,101299.83
2024-01-08T05:18:41.573Z,101304.73
2024-01-08T05:21:14.606Z,101312.02
2024-01-08T05:23:42.507Z,101310.33
2024-01-08T05:26:10.760Z,101312.65
2024-01-08T05:28:39.354Z,101315.85
2024-01-08T05:31:07.335Z,101320.05
2024-01-08T05:33:35.213Z,101321.05
2024-01-08T05:36:03.654Z,101319.98
2024-01-08T05:38:31.510Z,101322.69
2024-01-08T05:40:59.440Z,101325.34
2024-01-08T05:43:27.275Z,101323.55
2024-01-08T05:45:55.445Z,101326.70
2024-01-08T05:48:23.405Z,101332.99
2024-01-08T05:50:51.351Z,101333.66
2024-01-08T05:53:19.342Z,101338.09
2024-01-08T05:55:47.237Z,101335.55
2024-01-08T05:58:15.167Z,101336.43
2024-01-08T06:00:43.091Z,101338.75
2024-01-08T06:03:10.929Z,101341.86
2024-01-08T06:05:38.913Z,101348.80
2024-01-08T06:08:07.940Z,101351.86
2024-01-08T06:10:35.860Z,101353.14
2024-01-08T06:13:04.191Z,101355.87
2024-01-08T06:15:32.001Z,101354.79
2024-01-08T06:17:59.766Z,101361.28
2024-01-08T06:20:27.705Z,101366.02
2024-01-08T06:22:55.586Z,101370.75
2024-01-08T06:25:23.596Z,101367.98
2024-01-08T06:27:51.459Z,101369.19
2024-01-08T06:30:19.760Z,101375.92
2024-01-08T06:32:47.767Z,101381.85
2024-01-08T06:35:16.050Z,101386.08
2024-01-08T06:37:44.120Z,101385.00
2024-01-08T06:40:12.597Z,101391.48
2024-01-08T06:42:52.482Z,101390.79
2024-01-08T06:45:28.216Z,101391.09
2024-01-08T06:47:56.333Z,101391.56
2024-01-08T06:50:24.624Z,101398.52
2024-01-08T06:52:52.772Z,101397.64
2024-01-08T06:55:20.670Z,101399.14
2024-01-08T06:57:50.438Z,101402.29
2024-01-08T07:00:19.444Z,101408.14
2024-01-08T07:02:47.762Z,101412.66
2024-01-08T07:05:17.120Z,101415.27
2024-01-08T07:07:45.630Z,101418.88
2024-01-08T07:10:13.716Z,101421.02
2024-01-08T07:12:41.584Z,101430.48
2024-01-08T07:15:09.510Z,101434.66
2024-01-08T07:17:37.419Z,101434.36
2024-01-08T07:20:05.940Z,101435.40
2024-01-08T07:22:34.360Z,101439.59
2024-01-08T07:25:03.372Z,101441.62
2024-01-08T07:27:31.209Z,101445.57
2024-01-08T07:29:59.286Z,101449.94
2024-01-08T07:32:27.410Z,101448.94
2024-01-08T07:34:55.394Z,101451.47
2024-01-08T07:37:23.364Z,101452.58
2024-01-08T07:39:51.524Z,101457.75
2024-01-08T07:42:19.291Z,101457.48
2024-01-08T07:44:47.189Z,101460.42
2024-01-08T07:47:15.233Z,101465.98
2024-01-08T07:49:43.069Z,101466.87
2024-01-08T07:52:10.959Z,101471.75
2024-01-08T07:54:38.748Z,101473.05
2024-01-08T07:57:11.159Z,101476.62
2024-01-08T07:59:40.527Z,101480.85
2024-01-08T08:02:08.578Z,101484.09
2024-01-08T08:04:36.490Z,101482.84
2024-01-08T08:07:04.986Z,101486.96
2024-01-08T08:09:32.882Z,101493.95
2024-01-08T08:12:00.707Z,101504.13
2024-01-08T08:14:28.554Z,101505.36
2024-01-08T08:16:56.673Z,101505.71
2024-01-08T08:19:26.381Z,101512.33
2024-01-08T08:21:55.652Z,101515.09
2024-01-08T08:24:24.506Z,101521.85
2024-01-08T08:26:52.392Z,101526.73
2024-01-08T08:29:20.333Z,101526.62
2024-01-08T08:31:48.220Z,101528.66
2024-01-08T08:34:16.492Z,101529.61
2024-01-08T08:36:44.439Z,101534.92
2024-01-08T08:39:16.235Z,101537.39
2024-01-08T08:41:44.830Z,101540.63
2024-01-08T08:44:14.942Z,101545.59
2024-01-08T08:46:45.651Z,101542.85
2024-01-08T08:49:15.093Z,101552.29
2024-01-08T08:51:43.114Z,101553.95
2024-01-08T08:54:11.040Z,101559.59
2024-01-08T08:56:40.564Z,101560.66
2024-01-08T08:59:08.466Z,101559.56
2024-01-08T09:01:36.570Z,101562.80
2024-01-08T09:04:04.695Z,101567.25
2024-01-08T09:06:35.464Z,101567.19
2024-01-08T09:09:03.497Z,101564.98
2024-01-08T09:11:33.341Z,101573.11
2024-01-08T09:14:01.258Z,101571.48
2024-01-08T09:16:29.216Z,101574.80
2024-01-08T09:18:57.855Z,101576.49
2024-01-08T09:21:25.981Z,101575.91
2024-01-08T09:23:54.234Z,101573.58
2024-01-08T09:26:22.198Z,101574.58
2024-01-08T09:28:50.533Z,101581.09
2024-01-08T09:31:18.940Z,101585.58
2024-01-08T09:33:48.414Z,101585.92
2024-01-08T09:36:16.446Z,101585.39
2024-01-08T09:38:46.628Z,101589.52
2024-01-08T09:41:23.159Z,101592.95
2024-01-08T09:43:53.770Z,101596.71
2024-01-08T09:46:29.963Z,101589.45
2024-01-08T09:48:59.160Z,101588.63
2024-01-08T09:51:27.097Z,101591.94
2024-01-08T09:53:59.610Z,101589.48
2024-01-08T09:56:28.486Z,101591.30
2024-01-08T09:58:57.551Z,101590.89
2024-01-08T10:01:25.500Z,101590.84
2024-01-08T10:03:53.952Z,101594.47
2024-01-08T10:06:22.323Z,101592.08
2024-01-08T10:08:50.567Z,101593.35
2024-01-08T10:11:19.348Z,101594.27
2024-01-08T10:13:47.419Z,101595.15
2024-01-08T10:16:16.325Z,101590.93
2024-01-08T10:18:48.146Z,101591.41
2024-01-08T10:21:17.260Z,101593.60
2024-01-08T10:23:47.763Z,101590.41
2024-01-08T10:26:17.861Z,101588.60
2024-01-08T10:28:47.862Z,101591.60
2024-01-08T10:31:15.738Z,101592.97
2024-01-08T10:33:45.625Z,101594.91
2024-01-08T10:36:13.695Z,101593.48
2024-01-08T10:38:41.811Z,101590.83
2024-01-08T10:41:10.525Z,101586.21
2024-01-08T10:43:38.329Z,101587.61
2024-01-08T10:46:07.904Z,101590.06
2024-01-08T10:48:44.772Z,101595.77
2024-01-08T10:51:16.481Z,101595.95
2024-01-08T10:53:45.943Z,101598.76
2024-01-08T10:56:18.282Z,101597.05
2024-01-08T10:58:51.213Z,101602.52
2024-01-08T11:01:19.436Z,101603.73
2024-01-08T11:03:47.821Z,101596.11
2024-01-08T11:06:16.881Z,101596.17
2024-01-08T11:08:46.111Z,101602.28
2024-01-08T11:11:16.538Z,101602.54
2024-01-08T11:13:45.362Z,101600.73
2024-01-08T11:16:15.017Z,101605.27
2024-01-08T11:18:43.011Z,101608.14
2024-01-08T11:21:13.651Z,101604.02
2024-01-08T11:23:43.707Z,101606.14
2024-01-08T11:26:15.945Z,101604.66
2024-01-08T11:28:43.851Z,101606.45
2024-01-08T11:31:25.943Z,101603.38
2024-01-08T11:34:15.523Z,101602.42
2024-01-08T11:36:50.614Z,101604.70
2024-01-08T11:39:19.979Z,101600.95
2024-01-08T11:41:48.372Z,101603.22
2024-01-08T11:44:16.440Z,101603.33
2024-01-08T11:46:45.724Z,101599.50
2024-01-08T11:49:13.792Z,101596.48
2024-01-08T11:51:43.316Z,101598.13
2024-01-08T11:54:14.934Z,101595.86
2024-01-08T11:56:43.316Z,101599.74
2024-01-08T11:59:11.525Z,101600.49
2024-01-08T12:01:39.678Z,101603.19
2024-01-08T12:04:08.004Z,101600.30
2024-01-08T12:06:36.148Z,101600.73
2024-01-08T12:09:04.336Z,101604.28
2024-01-08T12:11:32.225Z,101600.52
2024-01-08T12:14:00.195Z,101599.14
2024-01-08T12:16:28.870Z,101603.20
2024-01-08T12:18:56.881Z,101606.89
2024-01-08T12:21:28.290Z,101602.14
2024-01-08T12:23:58.576Z,101596.79
2024-01-08T12:26:28.354Z,101597.64
2024-01-08T12:28:56.546Z,101595.21
2024-01-08T12:31:27.634Z,101600.13
2024-01-08T12:33:58.337Z,101600.44
2024-01-08T12:36:26.323Z,101606.89
2024-01-08T12:38:54.181Z,101606.68
2024-01-08T12:41:22.068Z,101611.47
2024-01-08T12:43:49.963Z,101611.46
2024-01-08T12:46:17.861Z,101611.30
2024-01-08T12:48:46.023Z,101611.41
2024-01-08T12:51:14.029Z,101617.40
2024-01-08T12:53:42.014Z,101616.50
2024-01-08T12:56:10.616Z,101621.86
2024-01-08T12:58:38.604Z,101621.57
2024-01-08T13:01:06.485Z,101630.48
2024-01-08T13:03:34.901Z,101633.06
2024-01-08T13:06:02.849Z,101630.41
2024-01-08T13:08:31.937Z,101629.01
2024-01-08T13:10:59.923Z,101635.14
2024-01-08T13:13:27.984Z,101636.14
2024-01-08T13:15:55.809Z,101635.49
2024-01-08T13:18:24.328Z,101640.10
2024-01-08T13:20:52.298Z,101640.05
2024-01-08T13:23:20.210Z,101638.27
2024-01-08T13:25:48.215Z,101641.21
2024-01-08T13:28:16.060Z,101645.39
2024-01-08T13:30:44.269Z,101650.50
2024-01-08T13:33:12.407Z,101651.77
2024-01-08T13:35:40.328Z,101658.17
2024-01-08T13:38:08.300Z,101661.33
2024-01-08T13:40:36.140Z,101660.34
2024-01-08T13:43:05.100Z,101665.70
2024-01-08T13:45:32.946Z,101669.44
2024-01-08T13:48:01.077Z,101675.19
2024-01-08T13:50:31.875Z,101679.63
2024-01-08T13:52:59.894Z,101680.25
2024-01-08T13:55:27.708Z,101684.22
2024-01-08T13:57:56.044Z,101686.63
2024-01-08T14:00:23.977Z,101689.13
2024-01-08T14:02:54.070Z,101694.33
2024-01-08T14:05:22.338Z,101702.41
2024-01-08T14:07:50.342Z,101704.19
2024-01-08T14:10:18.437Z,101706.53
2024-01-08T14:12:46.291Z,101707.02
2024-01-08T14:15:14.526Z,101709.90
2024-01-08T14:17:42.830Z,101713.77
2024-01-08T14:20:18.484Z,101713.10
2024-01-08T14:22:48.848Z,101710.92
2024-01-08T14:25:17.718Z,101716.52
2024-01-08T14:27:45.623Z,101724.74
2024-01-08T14:30:13.979Z,101729.91
2024-01-08T14:32:43.688Z,101737.70
2024-01-08T14:35:12.219Z,101741.58
2024-01-08T14:37:44.058Z,101740.48
2024-01-08T14:40:12.508Z,101741.95
2024-01-08T14:42:40.497Z,101742.20
2024-01-08T14:45:09.066Z,101742.05
2024-01-08T14:47:36.930Z,101746.15
2024-01-08T14:50:07.460Z,101751.88
2024-01-08T14:52:35.461Z,101756.38
2024-01-08T14:55:03.546Z,101757.45
2024-01-08T14:57:32.674Z,101758.62
2024-01-08T15:00:01.315Z,101767.14
2024-01-08T15:02:32.235Z,101769.70
2024-01-08T15:05:00.159Z,101775.25
2024-01-08T15:07:28.419Z,101779.09
2024-01-08T15:09:58.819Z,101781.75
2024-01-08T15:12:26.631Z,101784.86
2024-01-08T15:14:54.483Z,101782.36
2024-01-08T15:17:22.896Z,101789.84
2024-01-08T15:19:51.047Z,101794.33
2024-01-08T15:22:18.976Z,101796.70
2024-01-08T15:24:46.983Z,101799.07
2024-01-08T15:27:14.893Z,101801.50
2024-01-08T15:29:42.820Z,101805.20
2024-01-08T15:32:10.780Z,101804.04
2024-01-08T15:34:39.325Z,101811.63
2024-01-08T15:37:07.205Z,101809.73
2024-01-08T15:39:35.154Z,101810.13
2024-01-08T15:42:03.090Z,101815.80
2024-01-08T15:44:31.051Z,101817.90
2024-01-08T15:46:59.790Z,101821.62
2024-01-08T15:49:27.924Z,101822.39
2024-01-08T15:51:55.873Z,101823.50
2024-01-08T15:54:24.983Z,101823.71
2024-01-08T15:56:53.085Z,101825.38
2024-01-08T15:59:21.249Z,101832.66
2024-01-08T16:01:49.159Z,101838.96
2024-01-08T16:04:17.278Z,101836.02
2024-01-08T16:06:48.272Z,101832.35
2024-01-08T16:09:18.208Z,101839.45
2024-01-08T16:11:46.242Z,101840.52
2024-01-08T16:14:14.164Z,101838.91
2024-01-08T16:16:42.143Z,101845.26
2024-01-08T16:19:10.217Z,101846.34
2024-01-08T16:21:38.178Z,101851.77
2024-01-08T16:24:12.900Z,101853.73
2024-01-08T16:26:43.519Z,101854.54
2024-01-08T16:29:12.622Z,101849.94
2024-01-08T16:31:41.525Z,101850.21
2024-01-08T16:34:09.599Z,101850.26
2024-01-08T16:36:39.148Z,101859.91
2024-01-08T16:39:10.501Z,101867.67
2024-01-08T16:41:38.353Z,101868.18
2024-01-08T16:44:06.387Z,101872.21
2024-01-08T16:46:34.405Z,101872.67
2024-01-08T16:49:03.050Z,101872.38
2024-01-08T16:51:30.951Z,101874.48
2024-01-08T16:54:03.265Z,101876.77
2024-01-08T16:56:33.229Z,101882.16
2024-01-08T16:59:01.220Z,101888.35
2024-01-08T17:01:34.632Z,101888.75
2024-01-08T17:04:04.811Z,101889.88
2024-01-08T17:06:32.929Z,101892.19
2024-01-08T17:09:04.810Z,101892.94
2024-01-08T17:11:32.822Z,101896.63
2024-01-08T17:14:00.819Z,101899.17
2024-01-08T17:16:28.730Z,101899.45
2024-01-08T17:18:57.163Z,101900.56
2024-01-08T17:21:25.167Z,101900.98
2024-01-08T17:23:52.972Z,101905.23
2024-01-08T17:26:21.154Z,101903.98
2024-01-08T17:28:49.321Z,101906.02
2024-01-08T17:31:17.218Z,101906.84
2024-01-08T17:33:45.380Z,101910.86
2024-01-08T17:36:13.575Z,101913.29
2024-01-08T17:38:41.875Z,101913.16
2024-01-08T17:41:10.130Z,101916.85
2024-01-08T17:43:38.014Z,101915.96
2024-01-08T17:46:06.868Z,101922.84
2024-01-08T17:48:34.867Z,101925.54
2024-01-08T17:51:03.220Z,101931.48
2024-01-08T17:53:31.570Z,101936.27
2024-01-08T17:55:59.468Z,101934.42
2024-01-08T17:58:29.311Z,101937.79
2024-01-08T18:00:57.351Z,101941.83
2024-01-08T18:03:25.182Z,101945.66
2024-01-08T18:05:53.199Z,101947.35
2024-01-08T18:08:21.334Z,101956.40
2024-01-08T18:10:50.012Z,101954.84
2024-01-08T18:13:17.814Z,101953.84
2024-01-08T18:15:46.055Z,101957.00
2024-01-08T18:18:16.214Z,101957.00
2024-01-08T18:20:46.305Z,101961.33
2024-01-08T18:23:14.479Z,101958.94
2024-01-08T18:25:42.640Z,101962.73
2024-01-08T18:28:10.492Z,101961.92
2024-01-08T18:30:38.554Z,101967.36
2024-01-08T18:33:06.528Z,101967.34
2024-01-08T18:35:34.486Z,101966.91
2024-01-08T18:38:02.765Z,101972.66
2024-01-08T18:40:31.076Z,101980.58
2024-01-08T18:42:59.107Z,101986.10
2024-01-08T18:45:26.976Z,101983.10
2024-01-08T18:47:54.995Z,101988.14
2024-01-08T18:50:22.914Z,101989.83
2024-01-08T18:52:53.486Z,101988.85
2024-01-08T18:55:21.685Z,101993.98
2024-01-08T18:57:50.090Z,101997.38
2024-01-08T19:00:18.576Z,101997.70
2024-01-08T19:02:46.550Z,102001.22
2024-01-08T19:05:18.378Z,102007.13
2024-01-08T19:07:48.343Z,102011.21
2024-01-08T19:10:16.254Z,102011.53
2024-01-08T19:12:46.237Z,102019.48
2024-01-08T19:15:17.508Z,102022.30
2024-01-08T19:17:45.776Z,102030.38
2024-01-08T19:20:13.842Z,102030.48
2024-01-08T19:22:41.671Z,102029.33
2024-01-08T19:25:09.831Z,102035.97
2024-01-08T19:27:37.985Z,102035.45
2024-01-08T19:30:06.503Z,102036.46
2024-01-08T19:32:34.472Z,102037.25
2024-01-08T19:35:02.454Z,102037.84
2024-01-08T19:37:30.379Z,102042.95
2024-01-08T19:39:58.298Z,102038.18
2024-01-08T19:42:26.235Z,102045.05
2024-01-08T19:44:54.140Z,102050.92
2024-01-08T19:47:22.179Z,102053.57
2024-01-08T19:49:50.251Z,102057.39
2024-01-08T19:52:18.350Z,102056.84
2024-01-08T19:54:48.985Z,102060.79
2024-01-08T19:57:17.414Z,102066.02
2024-01-08T19:59:45.842Z,102068.20
2024-01-08T20:02:13.878Z,102073.61
2024-01-08T20:04:41.893Z,102076.52
2024-01-08T20:07:09.811Z,102077.49
2024-01-08T20:09:37.737Z,102076.83
2024-01-08T20:12:06.300Z,102082.16
2024-01-08T20:14:34.927Z,102084.83
2024-01-08T20:17:02.842Z,102084.86
2024-01-08T20:19:30.933Z,102087.60
2024-01-08T20:21:58.771Z,102089.39
2024-01-08T20:24:26.587Z,102090.98
2024-01-08T20:26:54.503Z,102095.59
2024-01-08T20:29:22.398Z,102095.42
2024-01-08T20:32:04.062Z,102098.95
2024-01-08T20:34:32.038Z,102096.37
2024-01-08T20:37:00.328Z,102094.20
2024-01-08T20:39:28.407Z,102094.34
2024-01-08T20:41:56.419Z,102092.03
2024-01-08T20:44:24.300Z,102095.43
2024-01-08T20:46:52.241Z,102095.63
2024-01-08T20:49:27.838Z,102096.04
2024-01-08T20:51:56.107Z,102096.85
2024-01-08T20:54:24.319Z,102099.05
2024-01-08T20:56:52.211Z,102105.80
2024-01-08T20:59:20.428Z,102099.39
2024-01-08T21:01:48.234Z,102095.86
2024-01-08T21:04:16.154Z,102093.95
2024-01-08T21:06:43.979Z,102090.25
2024-01-08T21:09:11.869Z,102092.85
2024-01-08T21:11:39.733Z,102090.61
2024-01-08T21:14:07.630Z,102096.87
2024-01-08T21:16:36.349Z,102099.30
2024-01-08T21:19:06.265Z,102097.66
2024-01-08T21:21:34.509Z,102098.98
2024-01-08T21:24:02.453Z,102100.49
2024-01-08T21:26:30.483Z,102097.98
2024-01-08T21:28:58.476Z,102102.05
2024-01-08T21:31:26.491Z,102102.86
2024-01-08T21:33:54.533Z,102099.80
2024-01-08T21:36:22.485Z,102100.73
2024-01-08T21:38:50.438Z,102097.88
2024-01-08T21:41:18.371Z,102102.40
2024-01-08T21:43:46.437Z,102109.45
2024-01-08T21:46:14.266Z,102111.30
2024-01-08T21:48:45.495Z,102113.27
2024-01-08T21:51:13.686Z,102115.55
2024-01-08T21:53:41.783Z,102120.68
2024-01-08T21:56:09.952Z,102118.66
2024-01-08T21:58:37.950Z,102121.46
2024-01-08T22:01:05.829Z,102123.61
2024-01-08T22:03:33.773Z,102128.27
2024-01-08T22:06:01.846Z,102131.75
2024-01-08T22:08:29.867Z,102133.38
2024-01-08T22:10:57.839Z,102140.20
2024-01-08T22:13:25.729Z,102141.96
2024-01-08T22:15:53.570Z,102147.23
2024-01-08T22:18:21.457Z,102152.21
2024-01-08T22:20:49.476Z,102150.36
2024-01-08T22:23:17.484Z,102153.92
2024-01-08T22:25:45.576Z,102151.08
2024-01-08T22:28:13.461Z,102152.84
2024-01-08T22:30:41.776Z,102151.08
2024-01-08T22:33:09.989Z,102154.61
2024-01-08T22:35:38.048Z,102157.51
2024-01-08T22:38:05.858Z,102159.38
2024-01-08T22:40:33.694Z,102160.97
2024-01-08T22:43:01.477Z,102162.16
2024-01-08T22:45:29.608Z,102157.80
2024-01-08T22:47:57.566Z,102162.42
2024-01-08T22:50:25.477Z,102165.70
2024-01-08T22:52:53.360Z,102167.16
2024-01-08T22:55:22.194Z,102169.06
2024-01-08T22:57:50.209Z,102165.91
2024-01-08T23:00:18.910Z,102165.15
2024-01-08T23:02:46.884Z,102164.87
2024-01-08T23:05:15.028Z,102168.46
2024-01-08T23:07:43.062Z,102170.96
2024-01-08T23:10:10.971Z,102167.66
2024-01-08T23:12:38.837Z,102167.23
2024-01-08T23:15:07.405Z,102170.27
2024-01-08T23:17:35.538Z,102176.27
2024-01-08T23:20:03.979Z,102178.04
2024-01-08T23:22:32.005Z,102177.66
2024-01-08T23:24:59.823Z,102176.64
2024-01-08T23:27:27.911Z,102178.33
2024-01-08T23:29:56.876Z,102182.05
2024-01-08T23:32:25.043Z,102177.81
2024-01-08T23:34:52.975Z,102172.98
2024-01-08T23:37:20.865Z,102175.70
2024-01-08T23:39:49.028Z,102176.73
2024-01-08T23:42:16.940Z,102174.45
2024-01-08T23:44:44.794Z,102176.75
2024-01-08T23:47:12.701Z,102171.83
2024-01-08T23:49:40.981Z,102173.11
2024-01-08T23:52:08.955Z,102173.32
2024-01-08T23:54:36.919Z,102176.77
2024-01-08T23:57:05.104Z,102179.45
2024-01-08T23:59:32.921Z,102174.38
